sensor_id;sensor_type;location;lat;lon;timestamp;P1;durP1;ratioP1;P2;durP2;ratioP2
32297;SDS011;18782;48.984;8.548;2023-02-28T00:00:39;5.55;;;2.33;;
32297;SDS011;18782;48.984;8.548;2023-02-28T00:03:06;2.40;;;1.40;;
32297;SDS011;18782;48.984;8.548;2023-02-28T00:05:34;2.42;;;1.70;;
32297;SDS011;18782;48.984;8.548;2023-02-28T00:08:02;2.17;;;1.35;;
32297;SDS011;18782;48.984;8.548;2023-02-28T00:10:30;5.20;;;1.48;;
32297;SDS011;18782;48.984;8.548;2023-02-28T00:12:59;3.35;;;1.80;;
32297;SDS011;18782;48.984;8.548;2023-02-28T00:15:28;2.72;;;1.70;;
32297;SDS011;18782;48.984;8.548;2023-02-28T00:17:57;3.25;;;1.45;;
32297;SDS011;18782;48.984;8.548;2023-02-28T00:20:25;2.38;;;1.55;;
32297;SDS011;18782;48.984;8.548;2023-02-28T00:22:53;2.45;;;1.23;;
32297;SDS011;18782;48.984;8.548;2023-02-28T00:25:22;3.55;;;1.52;;
32297;SDS011;18782;48.984;8.548;2023-02-28T00:27:51;4.38;;;1.50;;
32297;SDS011;18782;48.984;8.548;2023-02-28T00:30:20;3.42;;;1.95;;
32297;SDS011;18782;48.984;8.548;2023-02-28T00:32:50;2.90;;;1.73;;
32297;SDS011;18782;48.984;8.548;2023-02-28T00:35:19;3.38;;;1.52;;
32297;SDS011;18782;48.984;8.548;2023-02-28T00:37:47;4.53;;;2.00;;
32297;SDS011;18782;48.984;8.548;2023-02-28T00:40:15;3.28;;;1.65;;
32297;SDS011;18782;48.984;8.548;2023-02-28T00:42:43;3.72;;;2.00;;
32297;SDS011;18782;48.984;8.548;2023-02-28T00:45:11;5.00;;;1.73;;
32297;SDS011;18782;48.984;8.548;2023-02-28T00:47:39;2.75;;;1.88;;
32297;SDS011;18782;48.984;8.548;2023-02-28T00:50:07;2.53;;;1.65;;
32297;SDS011;18782;48.984;8.548;2023-02-28T00:52:37;4.38;;;1.75;;
32297;SDS011;18782;48.984;8.548;2023-02-28T00:55:04;3.85;;;1.80;;
32297;SDS011;18782;48.984;8.548;2023-02-28T00:57:32;3.42;;;1.88;;
32297;SDS011;18782;48.984;8.548;2023-02-28T01:00:00;3.15;;;1.90;;
32297;SDS011;18782;48.984;8.548;2023-02-28T01:02:28;2.92;;;1.80;;
32297;SDS011;18782;48.984;8.548;2023-02-28T01:04:55;3.03;;;1.80;;
32297;SDS011;18782;48.984;8.548;2023-02-28T01:07:23;3.47;;;1.90;;
32297;SDS011;18782;48.984;8.548;2023-02-28T01:09:53;2.78;;;1.65;;
32297;SDS011;18782;48.984;8.548;2023-02-28T01:12:21;3.10;;;1.83;;
32297;SDS011;18782;48.984;8.548;2023-02-28T01:14:49;4.47;;;1.45;;
32297;SDS011;18782;48.984;8.548;2023-02-28T01:17:17;3.50;;;1.50;;
32297;SDS011;18782;48.984;8.548;2023-02-28T01:19:44;3.40;;;1.60;;
32297;SDS011;18782;48.984;8.548;2023-02-28T01:22:12;3.28;;;1.63;;
32297;SDS011;18782;48.984;8.548;2023-02-28T01:24:41;2.92;;;1.65;;
32297;SDS011;18782;48.984;8.548;2023-02-28T01:27:12;4.18;;;2.05;;
32297;SDS011;18782;48.984;8.548;2023-02-28T01:29:40;4.93;;;1.60;;
32297;SDS011;18782;48.984;8.548;2023-02-28T01:32:08;3.13;;;1.77;;
32297;SDS011;18782;48.984;8.548;2023-02-28T01:34:36;1.98;;;1.20;;
32297;SDS011;18782;48.984;8.548;2023-02-28T01:37:03;3.05;;;1.48;;
32297;SDS011;18782;48.984;8.548;2023-02-28T01:39:31;3.00;;;1.77;;
32297;SDS011;18782;48.984;8.548;2023-02-28T01:41:59;2.55;;;1.60;;
32297;SDS011;18782;48.984;8.548;2023-02-28T01:47:30;4.82;;;1.83;;
32297;SDS011;18782;48.984;8.548;2023-02-28T01:50:02;2.85;;;1.50;;
32297;SDS011;18782;48.984;8.548;2023-02-28T01:52:34;2.85;;;1.73;;
32297;SDS011;18782;48.984;8.548;2023-02-28T01:55:03;3.30;;;1.85;;
32297;SDS011;18782;48.984;8.548;2023-02-28T01:57:35;2.90;;;1.85;;
32297;SDS011;18782;48.984;8.548;2023-02-28T02:00:11;2.88;;;1.63;;
32297;SDS011;18782;48.984;8.548;2023-02-28T02:02:45;4.25;;;1.98;;
32297;SDS011;18782;48.984;8.548;2023-02-28T02:05:17;2.53;;;1.60;;
32297;SDS011;18782;48.984;8.548;2023-02-28T02:07:48;3.90;;;1.67;;
32297;SDS011;18782;48.984;8.548;2023-02-28T02:10:19;2.40;;;1.67;;
32297;SDS011;18782;48.984;8.548;2023-02-28T02:12:56;3.50;;;1.90;;
32297;SDS011;18782;48.984;8.548;2023-02-28T02:15:40;5.47;;;1.77;;
32297;SDS011;18782;48.984;8.548;2023-02-28T02:18:15;4.00;;;2.17;;
32297;SDS011;18782;48.984;8.548;2023-02-28T02:21:00;3.13;;;1.80;;
32297;SDS011;18782;48.984;8.548;2023-02-28T02:23:53;3.30;;;1.60;;
32297;SDS011;18782;48.984;8.548;2023-02-28T02:26:44;3.72;;;1.75;;
32297;SDS011;18782;48.984;8.548;2023-02-28T02:35:48;4.07;;;2.10;;
32297;SDS011;18782;48.984;8.548;2023-02-28T02:38:24;4.20;;;2.10;;
32297;SDS011;18782;48.984;8.548;2023-02-28T02:41:03;4.05;;;1.60;;
32297;SDS011;18782;48.984;8.548;2023-02-28T02:43:36;4.43;;;1.52;;
32297;SDS011;18782;48.984;8.548;2023-02-28T02:46:09;4.03;;;1.98;;
32297;SDS011;18782;48.984;8.548;2023-02-28T02:48:39;3.00;;;1.50;;
32297;SDS011;18782;48.984;8.548;2023-02-28T02:51:11;5.75;;;2.40;;
32297;SDS011;18782;48.984;8.548;2023-02-28T02:56:15;3.30;;;1.58;;
32297;SDS011;18782;48.984;8.548;2023-02-28T02:58:47;3.33;;;1.98;;
32297;SDS011;18782;48.984;8.548;2023-02-28T03:01:17;3.90;;;1.85;;
32297;SDS011;18782;48.984;8.548;2023-02-28T03:03:55;3.38;;;1.52;;
32297;SDS011;18782;48.984;8.548;2023-02-28T03:06:25;2.60;;;1.50;;
32297;SDS011;18782;48.984;8.548;2023-02-28T03:08:54;2.28;;;1.45;;
32297;SDS011;18782;48.984;8.548;2023-02-28T03:11:22;3.10;;;1.88;;
32297;SDS011;18782;48.984;8.548;2023-02-28T03:16:57;2.65;;;1.67;;
32297;SDS011;18782;48.984;8.548;2023-02-28T03:19:42;3.08;;;1.88;;
32297;SDS011;18782;48.984;8.548;2023-02-28T03:22:19;4.57;;;2.03;;
32297;SDS011;18782;48.984;8.548;2023-02-28T03:25:06;4.65;;;2.10;;
32297;SDS011;18782;48.984;8.548;2023-02-28T03:27:37;3.83;;;1.85;;
32297;SDS011;18782;48.984;8.548;2023-02-28T03:30:09;2.42;;;2.00;;
32297;SDS011;18782;48.984;8.548;2023-02-28T03:32:44;3.67;;;1.95;;
32297;SDS011;18782;48.984;8.548;2023-02-28T03:35:21;3.88;;;2.20;;
32297;SDS011;18782;48.984;8.548;2023-02-28T03:37:53;4.53;;;2.00;;
32297;SDS011;18782;48.984;8.548;2023-02-28T03:40:28;3.67;;;1.73;;
32297;SDS011;18782;48.984;8.548;2023-02-28T03:42:59;2.90;;;1.90;;
32297;SDS011;18782;48.984;8.548;2023-02-28T03:45:35;3.95;;;2.17;;
32297;SDS011;18782;48.984;8.548;2023-02-28T03:48:06;4.55;;;2.50;;
32297;SDS011;18782;48.984;8.548;2023-02-28T03:50:39;3.30;;;2.13;;
32297;SDS011;18782;48.984;8.548;2023-02-28T03:53:10;4.97;;;2.00;;
32297;SDS011;18782;48.984;8.548;2023-02-28T03:55:48;4.32;;;2.33;;
32297;SDS011;18782;48.984;8.548;2023-02-28T03:58:20;5.68;;;2.25;;
32297;SDS011;18782;48.984;8.548;2023-02-28T04:03:22;3.83;;;2.00;;
32297;SDS011;18782;48.984;8.548;2023-02-28T04:05:51;3.50;;;2.08;;
32297;SDS011;18782;48.984;8.548;2023-02-28T04:08:22;4.53;;;2.30;;
32297;SDS011;18782;48.984;8.548;2023-02-28T04:10:51;4.60;;;2.45;;
32297;SDS011;18782;48.984;8.548;2023-02-28T04:13:23;4.03;;;2.60;;
32297;SDS011;18782;48.984;8.548;2023-02-28T04:15:50;3.20;;;2.30;;
32297;SDS011;18782;48.984;8.548;2023-02-28T04:18:18;3.17;;;2.25;;
32297;SDS011;18782;48.984;8.548;2023-02-28T04:20:46;3.97;;;2.28;;
32297;SDS011;18782;48.984;8.548;2023-02-28T04:23:13;5.47;;;2.40;;
32297;SDS011;18782;48.984;8.548;2023-02-28T04:25:42;4.45;;;2.30;;
32297;SDS011;18782;48.984;8.548;2023-02-28T04:28:10;3.90;;;2.38;;
32297;SDS011;18782;48.984;8.548;2023-02-28T04:30:37;5.32;;;2.75;;
32297;SDS011;18782;48.984;8.548;2023-02-28T04:33:06;3.70;;;2.33;;
32297;SDS011;18782;48.984;8.548;2023-02-28T04:35:34;5.93;;;2.25;;
32297;SDS011;18782;48.984;8.548;2023-02-28T04:38:01;4.57;;;2.25;;
32297;SDS011;18782;48.984;8.548;2023-02-28T04:40:29;5.07;;;2.40;;
32297;SDS011;18782;48.984;8.548;2023-02-28T04:42:58;4.07;;;2.55;;
32297;SDS011;18782;48.984;8.548;2023-02-28T04:45:26;5.43;;;2.30;;
32297;SDS011;18782;48.984;8.548;2023-02-28T04:47:56;6.28;;;2.97;;
32297;SDS011;18782;48.984;8.548;2023-02-28T04:50:24;4.82;;;2.65;;
32297;SDS011;18782;48.984;8.548;2023-02-28T04:52:51;5.20;;;2.90;;
32297;SDS011;18782;48.984;8.548;2023-02-28T04:55:19;4.47;;;2.92;;
32297;SDS011;18782;48.984;8.548;2023-02-28T04:57:46;4.30;;;2.30;;
32297;SDS011;18782;48.984;8.548;2023-02-28T05:00:16;4.13;;;2.33;;
32297;SDS011;18782;48.984;8.548;2023-02-28T05:02:44;7.10;;;3.70;;
32297;SDS011;18782;48.984;8.548;2023-02-28T05:05:11;4.93;;;2.70;;
32297;SDS011;18782;48.984;8.548;2023-02-28T05:07:42;4.88;;;2.67;;
32297;SDS011;18782;48.984;8.548;2023-02-28T05:10:10;4.80;;;2.70;;
32297;SDS011;18782;48.984;8.548;2023-02-28T05:12:38;4.72;;;2.50;;
32297;SDS011;18782;48.984;8.548;2023-02-28T05:15:07;6.75;;;3.17;;
32297;SDS011;18782;48.984;8.548;2023-02-28T05:17:40;5.88;;;3.25;;
32297;SDS011;18782;48.984;8.548;2023-02-28T05:20:09;4.80;;;2.85;;
32297;SDS011;18782;48.984;8.548;2023-02-28T05:22:41;4.85;;;2.58;;
32297;SDS011;18782;48.984;8.548;2023-02-28T05:25:10;5.78;;;2.97;;
32297;SDS011;18782;48.984;8.548;2023-02-28T05:27:42;5.28;;;2.88;;
32297;SDS011;18782;48.984;8.548;2023-02-28T05:30:12;7.93;;;3.30;;
32297;SDS011;18782;48.984;8.548;2023-02-28T05:32:41;3.47;;;2.33;;
32297;SDS011;18782;48.984;8.548;2023-02-28T05:35:10;5.43;;;2.85;;
32297;SDS011;18782;48.984;8.548;2023-02-28T05:37:38;3.42;;;2.50;;
32297;SDS011;18782;48.984;8.548;2023-02-28T05:40:07;6.50;;;2.78;;
32297;SDS011;18782;48.984;8.548;2023-02-28T05:42:36;4.88;;;2.88;;
32297;SDS011;18782;48.984;8.548;2023-02-28T05:45:04;4.38;;;2.80;;
32297;SDS011;18782;48.984;8.548;2023-02-28T05:47:33;4.20;;;2.25;;
32297;SDS011;18782;48.984;8.548;2023-02-28T05:50:02;5.13;;;2.60;;
32297;SDS011;18782;48.984;8.548;2023-02-28T05:52:30;5.22;;;3.28;;
32297;SDS011;18782;48.984;8.548;2023-02-28T05:54:58;4.97;;;3.00;;
32297;SDS011;18782;48.984;8.548;2023-02-28T05:57:25;5.63;;;3.20;;
32297;SDS011;18782;48.984;8.548;2023-02-28T05:59:53;5.85;;;3.17;;
32297;SDS011;18782;48.984;8.548;2023-02-28T06:02:21;4.70;;;2.65;;
32297;SDS011;18782;48.984;8.548;2023-02-28T06:04:48;8.40;;;3.42;;
32297;SDS011;18782;48.984;8.548;2023-02-28T06:07:17;5.57;;;2.70;;
32297;SDS011;18782;48.984;8.548;2023-02-28T06:09:45;5.22;;;2.90;;
32297;SDS011;18782;48.984;8.548;2023-02-28T06:12:12;4.80;;;3.00;;
32297;SDS011;18782;48.984;8.548;2023-02-28T06:14:40;5.72;;;3.42;;
32297;SDS011;18782;48.984;8.548;2023-02-28T06:17:08;5.60;;;3.47;;
32297;SDS011;18782;48.984;8.548;2023-02-28T06:19:36;5.82;;;2.90;;
32297;SDS011;18782;48.984;8.548;2023-02-28T06:22:04;6.90;;;3.55;;
32297;SDS011;18782;48.984;8.548;2023-02-28T06:24:33;4.88;;;3.15;;
32297;SDS011;18782;48.984;8.548;2023-02-28T06:27:01;4.90;;;3.03;;
32297;SDS011;18782;48.984;8.548;2023-02-28T06:29:31;3.47;;;2.53;;
32297;SDS011;18782;48.984;8.548;2023-02-28T06:31:59;7.20;;;3.05;;
32297;SDS011;18782;48.984;8.548;2023-02-28T06:34:26;4.38;;;2.78;;
32297;SDS011;18782;48.984;8.548;2023-02-28T06:36:54;5.32;;;3.17;;
32297;SDS011;18782;48.984;8.548;2023-02-28T06:39:21;5.40;;;3.17;;
32297;SDS011;18782;48.984;8.548;2023-02-28T06:41:50;7.07;;;3.55;;
32297;SDS011;18782;48.984;8.548;2023-02-28T06:44:22;3.83;;;2.25;;
32297;SDS011;18782;48.984;8.548;2023-02-28T06:46:50;4.20;;;2.70;;
32297;SDS011;18782;48.984;8.548;2023-02-28T06:49:18;4.82;;;2.72;;
32297;SDS011;18782;48.984;8.548;2023-02-28T06:51:45;5.80;;;3.08;;
32297;SDS011;18782;48.984;8.548;2023-02-28T06:54:13;4.50;;;2.75;;
32297;SDS011;18782;48.984;8.548;2023-02-28T06:56:43;5.93;;;3.33;;
32297;SDS011;18782;48.984;8.548;2023-02-28T06:59:12;10.20;;;5.00;;
32297;SDS011;18782;48.984;8.548;2023-02-28T07:01:40;6.90;;;3.50;;
32297;SDS011;18782;48.984;8.548;2023-02-28T07:04:08;6.63;;;3.50;;
32297;SDS011;18782;48.984;8.548;2023-02-28T07:06:35;5.43;;;3.15;;
32297;SDS011;18782;48.984;8.548;2023-02-28T07:09:03;5.63;;;3.05;;
32297;SDS011;18782;48.984;8.548;2023-02-28T07:11:31;5.53;;;3.55;;
32297;SDS011;18782;48.984;8.548;2023-02-28T07:13:59;8.75;;;4.63;;
32297;SDS011;18782;48.984;8.548;2023-02-28T07:16:28;7.43;;;4.07;;
32297;SDS011;18782;48.984;8.548;2023-02-28T07:18:55;6.57;;;3.67;;
32297;SDS011;18782;48.984;8.548;2023-02-28T07:21:23;7.38;;;3.53;;
32297;SDS011;18782;48.984;8.548;2023-02-28T07:23:51;5.47;;;2.80;;
32297;SDS011;18782;48.984;8.548;2023-02-28T07:26:19;7.85;;;3.55;;
32297;SDS011;18782;48.984;8.548;2023-02-28T07:28:48;6.38;;;3.60;;
32297;SDS011;18782;48.984;8.548;2023-02-28T07:31:16;4.63;;;2.80;;
32297;SDS011;18782;48.984;8.548;2023-02-28T07:33:46;6.85;;;3.58;;
32297;SDS011;18782;48.984;8.548;2023-02-28T07:36:14;5.50;;;3.38;;
32297;SDS011;18782;48.984;8.548;2023-02-28T07:38:45;4.78;;;3.03;;
32297;SDS011;18782;48.984;8.548;2023-02-28T07:41:14;6.30;;;3.38;;
32297;SDS011;18782;48.984;8.548;2023-02-28T07:43:42;5.10;;;3.00;;
32297;SDS011;18782;48.984;8.548;2023-02-28T07:46:11;7.97;;;3.17;;
32297;SDS011;18782;48.984;8.548;2023-02-28T07:48:41;6.15;;;3.35;;
32297;SDS011;18782;48.984;8.548;2023-02-28T07:51:10;6.28;;;3.50;;
32297;SDS011;18782;48.984;8.548;2023-02-28T07:53:38;6.07;;;3.17;;
32297;SDS011;18782;48.984;8.548;2023-02-28T07:56:06;6.28;;;3.47;;
32297;SDS011;18782;48.984;8.548;2023-02-28T07:58:34;5.50;;;3.60;;
32297;SDS011;18782;48.984;8.548;2023-02-28T08:01:05;5.53;;;3.33;;
32297;SDS011;18782;48.984;8.548;2023-02-28T08:03:34;5.85;;;3.58;;
32297;SDS011;18782;48.984;8.548;2023-02-28T08:06:02;6.10;;;3.05;;
32297;SDS011;18782;48.984;8.548;2023-02-28T08:08:32;8.23;;;3.80;;
32297;SDS011;18782;48.984;8.548;2023-02-28T08:11:00;8.30;;;3.75;;
32297;SDS011;18782;48.984;8.548;2023-02-28T08:13:29;9.15;;;4.30;;
32297;SDS011;18782;48.984;8.548;2023-02-28T08:15:57;6.65;;;3.75;;
32297;SDS011;18782;48.984;8.548;2023-02-28T08:18:25;8.80;;;4.03;;
32297;SDS011;18782;48.984;8.548;2023-02-28T08:20:52;7.28;;;4.15;;
32297;SDS011;18782;48.984;8.548;2023-02-28T08:23:20;7.38;;;3.22;;
32297;SDS011;18782;48.984;8.548;2023-02-28T08:25:53;6.25;;;3.45;;
32297;SDS011;18782;48.984;8.548;2023-02-28T08:28:21;6.72;;;3.70;;
32297;SDS011;18782;48.984;8.548;2023-02-28T08:30:52;4.88;;;3.58;;
32297;SDS011;18782;48.984;8.548;2023-02-28T08:33:20;5.57;;;3.60;;
32297;SDS011;18782;48.984;8.548;2023-02-28T08:35:47;7.82;;;3.65;;
32297;SDS011;18782;48.984;8.548;2023-02-28T08:38:15;7.15;;;3.70;;
32297;SDS011;18782;48.984;8.548;2023-02-28T08:40:43;6.32;;;3.42;;
32297;SDS011;18782;48.984;8.548;2023-02-28T08:43:12;6.65;;;3.97;;
32297;SDS011;18782;48.984;8.548;2023-02-28T08:45:39;6.80;;;3.90;;
32297;SDS011;18782;48.984;8.548;2023-02-28T08:48:07;5.97;;;3.45;;
32297;SDS011;18782;48.984;8.548;2023-02-28T08:50:35;4.82;;;3.60;;
32297;SDS011;18782;48.984;8.548;2023-02-28T08:53:02;6.13;;;3.50;;
32297;SDS011;18782;48.984;8.548;2023-02-28T08:55:30;5.50;;;3.72;;
32297;SDS011;18782;48.984;8.548;2023-02-28T08:57:58;6.38;;;3.83;;
32297;SDS011;18782;48.984;8.548;2023-02-28T09:00:28;7.95;;;3.83;;
32297;SDS011;18782;48.984;8.548;2023-02-28T09:02:56;7.63;;;4.30;;
32297;SDS011;18782;48.984;8.548;2023-02-28T09:05:23;5.60;;;3.75;;
32297;SDS011;18782;48.984;8.548;2023-02-28T09:07:51;13.30;;;4.32;;
32297;SDS011;18782;48.984;8.548;2023-02-28T09:10:19;7.95;;;3.92;;
32297;SDS011;18782;48.984;8.548;2023-02-28T09:12:46;6.95;;;4.22;;
32297;SDS011;18782;48.984;8.548;2023-02-28T09:15:14;7.03;;;4.20;;
32297;SDS011;18782;48.984;8.548;2023-02-28T09:17:43;9.05;;;4.50;;
32297;SDS011;18782;48.984;8.548;2023-02-28T09:20:13;7.00;;;4.30;;
32297;SDS011;18782;48.984;8.548;2023-02-28T09:22:40;6.53;;;5.03;;
32297;SDS011;18782;48.984;8.548;2023-02-28T09:25:08;6.95;;;4.70;;
32297;SDS011;18782;48.984;8.548;2023-02-28T09:27:36;8.63;;;4.43;;
32297;SDS011;18782;48.984;8.548;2023-02-28T09:30:04;6.53;;;4.50;;
32297;SDS011;18782;48.984;8.548;2023-02-28T09:32:32;7.40;;;4.70;;
32297;SDS011;18782;48.984;8.548;2023-02-28T09:35:01;6.85;;;4.18;;
32297;SDS011;18782;48.984;8.548;2023-02-28T09:37:28;8.00;;;5.00;;
32297;SDS011;18782;48.984;8.548;2023-02-28T09:39:57;7.70;;;4.50;;
32297;SDS011;18782;48.984;8.548;2023-02-28T09:42:29;5.72;;;4.25;;
32297;SDS011;18782;48.984;8.548;2023-02-28T09:45:01;5.80;;;4.00;;
32297;SDS011;18782;48.984;8.548;2023-02-28T09:50:06;6.30;;;4.00;;
32297;SDS011;18782;48.984;8.548;2023-02-28T09:52:44;6.75;;;4.07;;
32297;SDS011;18782;48.984;8.548;2023-02-28T09:55:19;6.95;;;4.55;;
32297;SDS011;18782;48.984;8.548;2023-02-28T09:57:49;8.10;;;4.55;;
32297;SDS011;18782;48.984;8.548;2023-02-28T10:00:19;6.90;;;4.35;;
32297;SDS011;18782;48.984;8.548;2023-02-28T10:05:53;8.30;;;4.57;;
32297;SDS011;18782;48.984;8.548;2023-02-28T10:08:26;7.88;;;4.40;;
32297;SDS011;18782;48.984;8.548;2023-02-28T10:10:57;7.43;;;4.65;;
32297;SDS011;18782;48.984;8.548;2023-02-28T10:13:32;6.53;;;4.47;;
32297;SDS011;18782;48.984;8.548;2023-02-28T10:16:03;7.13;;;4.70;;
32297;SDS011;18782;48.984;8.548;2023-02-28T10:18:39;7.18;;;4.50;;
32297;SDS011;18782;48.984;8.548;2023-02-28T10:21:15;7.18;;;4.57;;
32297;SDS011;18782;48.984;8.548;2023-02-28T10:23:47;6.05;;;4.30;;
32297;SDS011;18782;48.984;8.548;2023-02-28T10:26:17;14.15;;;8.50;;
32297;SDS011;18782;48.984;8.548;2023-02-28T10:28:45;8.02;;;5.30;;
32297;SDS011;18782;48.984;8.548;2023-02-28T10:31:14;15.10;;;7.07;;
32297;SDS011;18782;48.984;8.548;2023-02-28T10:33:44;7.53;;;4.93;;
32297;SDS011;18782;48.984;8.548;2023-02-28T10:36:13;8.00;;;5.70;;
32297;SDS011;18782;48.984;8.548;2023-02-28T10:38:44;9.02;;;5.40;;
32297;SDS011;18782;48.984;8.548;2023-02-28T10:41:14;8.50;;;4.55;;
32297;SDS011;18782;48.984;8.548;2023-02-28T10:43:43;8.38;;;4.80;;
32297;SDS011;18782;48.984;8.548;2023-02-28T10:46:13;10.75;;;6.07;;
32297;SDS011;18782;48.984;8.548;2023-02-28T10:49:00;8.70;;;5.70;;
32297;SDS011;18782;48.984;8.548;2023-02-28T10:51:36;9.40;;;5.15;;
32297;SDS011;18782;48.984;8.548;2023-02-28T10:54:06;8.93;;;5.22;;
32297;SDS011;18782;48.984;8.548;2023-02-28T10:56:43;6.55;;;4.60;;
32297;SDS011;18782;48.984;8.548;2023-02-28T10:59:26;7.88;;;4.93;;
32297;SDS011;18782;48.984;8.548;2023-02-28T11:01:56;9.05;;;5.25;;
32297;SDS011;18782;48.984;8.548;2023-02-28T11:04:32;7.78;;;4.53;;
32297;SDS011;18782;48.984;8.548;2023-02-28T11:07:04;6.82;;;5.13;;
32297;SDS011;18782;48.984;8.548;2023-02-28T11:09:34;8.15;;;4.97;;
32297;SDS011;18782;48.984;8.548;2023-02-28T11:12:05;9.02;;;5.57;;
32297;SDS011;18782;48.984;8.548;2023-02-28T11:14:36;8.05;;;5.03;;
32297;SDS011;18782;48.984;8.548;2023-02-28T11:17:14;7.13;;;4.90;;
32297;SDS011;18782;48.984;8.548;2023-02-28T11:19:51;9.25;;;4.75;;
32297;SDS011;18782;48.984;8.548;2023-02-28T11:22:24;6.63;;;4.47;;
32297;SDS011;18782;48.984;8.548;2023-02-28T11:24:56;8.13;;;4.65;;
32297;SDS011;18782;48.984;8.548;2023-02-28T11:27:40;9.60;;;6.53;;
32297;SDS011;18782;48.984;8.548;2023-02-28T11:30:23;7.53;;;5.35;;
32297;SDS011;18782;48.984;8.548;2023-02-28T11:33:17;7.70;;;4.75;;
32297;SDS011;18782;48.984;8.548;2023-02-28T11:35:48;7.97;;;4.70;;
32297;SDS011;18782;48.984;8.548;2023-02-28T11:38:19;6.97;;;4.70;;
32297;SDS011;18782;48.984;8.548;2023-02-28T11:40:49;8.07;;;5.50;;
32297;SDS011;18782;48.984;8.548;2023-02-28T11:43:35;6.75;;;5.10;;
32297;SDS011;18782;48.984;8.548;2023-02-28T11:46:16;9.70;;;5.93;;
32297;SDS011;18782;48.984;8.548;2023-02-28T11:48:52;9.27;;;5.72;;
32297;SDS011;18782;48.984;8.548;2023-02-28T11:51:27;6.82;;;5.05;;
32297;SDS011;18782;48.984;8.548;2023-02-28T11:54:03;7.38;;;5.63;;
32297;SDS011;18782;48.984;8.548;2023-02-28T11:56:43;7.60;;;4.80;;
32297;SDS011;18782;48.984;8.548;2023-02-28T11:59:19;8.73;;;4.82;;
32297;SDS011;18782;48.984;8.548;2023-02-28T12:02:18;7.40;;;5.18;;
32297;SDS011;18782;48.984;8.548;2023-02-28T12:04:52;7.68;;;5.22;;
32297;SDS011;18782;48.984;8.548;2023-02-28T12:07:37;7.82;;;5.20;;
32297;SDS011;18782;48.984;8.548;2023-02-28T12:10:17;7.53;;;5.20;;
32297;SDS011;18782;48.984;8.548;2023-02-28T12:12:50;8.02;;;5.20;;
32297;SDS011;18782;48.984;8.548;2023-02-28T12:15:36;10.32;;;5.10;;
32297;SDS011;18782;48.984;8.548;2023-02-28T12:18:20;8.55;;;5.53;;
32297;SDS011;18782;48.984;8.548;2023-02-28T12:20:59;7.72;;;5.30;;
32297;SDS011;18782;48.984;8.548;2023-02-28T12:23:43;7.15;;;5.50;;
32297;SDS011;18782;48.984;8.548;2023-02-28T12:26:22;11.80;;;6.95;;
32297;SDS011;18782;48.984;8.548;2023-02-28T12:28:59;9.93;;;6.55;;
32297;SDS011;18782;48.984;8.548;2023-02-28T12:31:33;7.70;;;5.28;;
32297;SDS011;18782;48.984;8.548;2023-02-28T12:34:04;8.60;;;5.78;;
32297;SDS011;18782;48.984;8.548;2023-02-28T12:39:07;7.13;;;5.22;;
32297;SDS011;18782;48.984;8.548;2023-02-28T12:41:42;6.90;;;4.75;;
32297;SDS011;18782;48.984;8.548;2023-02-28T12:44:13;10.38;;;5.68;;
32297;SDS011;18782;48.984;8.548;2023-02-28T12:46:47;7.18;;;4.68;;
32297;SDS011;18782;48.984;8.548;2023-02-28T12:49:18;7.18;;;5.18;;
32297;SDS011;18782;48.984;8.548;2023-02-28T12:51:51;8.63;;;5.60;;
32297;SDS011;18782;48.984;8.548;2023-02-28T12:54:22;7.93;;;5.38;;
32297;SDS011;18782;48.984;8.548;2023-02-28T12:56:56;7.47;;;5.07;;
32297;SDS011;18782;48.984;8.548;2023-02-28T12:59:32;10.82;;;5.68;;
32297;SDS011;18782;48.984;8.548;2023-02-28T13:02:17;11.65;;;5.32;;
32297;SDS011;18782;48.984;8.548;2023-02-28T13:05:30;6.93;;;5.00;;
32297;SDS011;18782;48.984;8.548;2023-02-28T13:08:24;7.60;;;5.03;;
32297;SDS011;18782;48.984;8.548;2023-02-28T13:11:05;6.20;;;4.88;;
32297;SDS011;18782;48.984;8.548;2023-02-28T13:13:48;7.80;;;5.18;;
32297;SDS011;18782;48.984;8.548;2023-02-28T13:16:23;6.63;;;4.93;;
32297;SDS011;18782;48.984;8.548;2023-02-28T13:18:52;6.22;;;4.60;;
32297;SDS011;18782;48.984;8.548;2023-02-28T13:21:41;6.55;;;5.13;;
32297;SDS011;18782;48.984;8.548;2023-02-28T13:24:11;6.18;;;4.95;;
32297;SDS011;18782;48.984;8.548;2023-02-28T13:30:02;6.07;;;4.32;;
32297;SDS011;18782;48.984;8.548;2023-02-28T13:33:24;7.32;;;5.05;;
32297;SDS011;18782;48.984;8.548;2023-02-28T13:38:39;6.90;;;4.88;;
32297;SDS011;18782;48.984;8.548;2023-02-28T13:44:15;7.43;;;5.30;;
32297;SDS011;18782;48.984;8.548;2023-02-28T13:49:50;11.25;;;5.35;;
32297;SDS011;18782;48.984;8.548;2023-02-28T13:52:20;6.95;;;5.20;;
32297;SDS011;18782;48.984;8.548;2023-02-28T13:54:54;7.45;;;5.70;;
32297;SDS011;18782;48.984;8.548;2023-02-28T13:57:32;8.00;;;5.07;;
32297;SDS011;18782;48.984;8.548;2023-02-28T14:00:15;7.20;;;5.20;;
32297;SDS011;18782;48.984;8.548;2023-02-28T14:02:54;7.88;;;5.10;;
32297;SDS011;18782;48.984;8.548;2023-02-28T14:05:39;6.90;;;5.47;;
32297;SDS011;18782;48.984;8.548;2023-02-28T14:08:08;6.43;;;5.20;;
32297;SDS011;18782;48.984;8.548;2023-02-28T14:10:43;8.05;;;5.70;;
32297;SDS011;18782;48.984;8.548;2023-02-28T14:16:11;7.45;;;5.93;;
32297;SDS011;18782;48.984;8.548;2023-02-28T14:18:42;8.50;;;6.07;;
32297;SDS011;18782;48.984;8.548;2023-02-28T14:21:19;8.45;;;5.68;;
32297;SDS011;18782;48.984;8.548;2023-02-28T14:23:58;7.43;;;5.60;;
32297;SDS011;18782;48.984;8.548;2023-02-28T14:30:03;8.35;;;5.57;;
32297;SDS011;18782;48.984;8.548;2023-02-28T14:32:45;6.82;;;5.50;;
32297;SDS011;18782;48.984;8.548;2023-02-28T14:35:35;7.50;;;5.38;;
32297;SDS011;18782;48.984;8.548;2023-02-28T14:38:14;6.70;;;5.25;;
32297;SDS011;18782;48.984;8.548;2023-02-28T14:40:47;10.20;;;6.75;;
32297;SDS011;18782;48.984;8.548;2023-02-28T14:43:19;7.55;;;5.88;;
32297;SDS011;18782;48.984;8.548;2023-02-28T14:45:50;6.53;;;5.07;;
32297;SDS011;18782;48.984;8.548;2023-02-28T14:48:21;9.68;;;7.10;;
32297;SDS011;18782;48.984;8.548;2023-02-28T14:50:52;8.82;;;6.53;;
32297;SDS011;18782;48.984;8.548;2023-02-28T14:53:21;6.47;;;4.93;;
32297;SDS011;18782;48.984;8.548;2023-02-28T14:55:52;6.50;;;5.30;;
32297;SDS011;18782;48.984;8.548;2023-02-28T14:58:25;9.33;;;5.77;;
32297;SDS011;18782;48.984;8.548;2023-02-28T15:00:56;6.97;;;5.40;;
32297;SDS011;18782;48.984;8.548;2023-02-28T15:03:29;6.22;;;5.22;;
32297;SDS011;18782;48.984;8.548;2023-02-28T15:08:28;7.68;;;5.18;;
32297;SDS011;18782;48.984;8.548;2023-02-28T15:11:01;8.05;;;6.10;;
32297;SDS011;18782;48.984;8.548;2023-02-28T15:13:34;7.25;;;6.00;;
32297;SDS011;18782;48.984;8.548;2023-02-28T15:16:08;6.45;;;5.22;;
32297;SDS011;18782;48.984;8.548;2023-02-28T15:18:42;7.30;;;6.28;;
32297;SDS011;18782;48.984;8.548;2023-02-28T15:21:14;7.82;;;5.45;;
32297;SDS011;18782;48.984;8.548;2023-02-28T15:23:45;8.65;;;5.82;;
32297;SDS011;18782;48.984;8.548;2023-02-28T15:26:16;7.55;;;5.93;;
32297;SDS011;18782;48.984;8.548;2023-02-28T15:28:48;7.47;;;5.68;;
32297;SDS011;18782;48.984;8.548;2023-02-28T15:31:21;7.28;;;6.18;;
32297;SDS011;18782;48.984;8.548;2023-02-28T15:33:53;6.57;;;5.15;;
32297;SDS011;18782;48.984;8.548;2023-02-28T15:36:24;6.05;;;5.00;;
32297;SDS011;18782;48.984;8.548;2023-02-28T15:38:54;5.97;;;5.35;;
32297;SDS011;18782;48.984;8.548;2023-02-28T15:41:36;10.32;;;7.07;;
32297;SDS011;18782;48.984;8.548;2023-02-28T15:44:15;10.40;;;5.80;;
32297;SDS011;18782;48.984;8.548;2023-02-28T15:46:58;7.07;;;5.63;;
32297;SDS011;18782;48.984;8.548;2023-02-28T15:49:29;8.38;;;5.97;;
32297;SDS011;18782;48.984;8.548;2023-02-28T15:52:11;7.90;;;5.93;;
32297;SDS011;18782;48.984;8.548;2023-02-28T15:54:42;8.93;;;5.88;;
32297;SDS011;18782;48.984;8.548;2023-02-28T15:57:13;8.02;;;6.07;;
32297;SDS011;18782;48.984;8.548;2023-02-28T15:59:48;7.77;;;5.83;;
32297;SDS011;18782;48.984;8.548;2023-02-28T16:02:20;10.93;;;6.50;;